Carnival Pride — H3VU — position and weather

sailwx.info

Track history (hours):
 
Tides and Currents Weather Stations Pressure Air Temp Water Temp Dewpoint Dewpoint Depression Visibility Wind Speed Wind Dir Waves Ship Positions

Carnival Pride

Operator: Carnival Cruise Lines

Last reported at 2015-Sep-01 11:00 UTC. Time now 2015-Sep-03 17:14 UTC.
Position N 28°30' W 074°06'.

Type: Ship. MMSI: 354215000.

Wind from 170 at 19 knots

Barometer 1020.0 mb
Air temperature 27.0 ° C
Visibility: greater than 10.8 NM
Dewpoint 24.0 ° C
Water temperature 29.0 ° C

Date/timePositionNaut miles runAvg speedWind from/ knotsBaromVisibWave heightAir tempDewpointWater temp
2015-Sep-01 11:00N 28°30' W 074°06'48018.0 170 / 191020.010.8 27.024.029.0
2015-Aug-31 08:19N 36°25' W 075°30'1418.8
2015-Aug-31 07:33N 36°38' W 075°38'1818.4
2015-Aug-31 06:33N 36°52' W 075°53'1716.6
2015-Aug-31 05:33N 37°05' W 076°06'1616.1
2015-Aug-31 04:33N 37°21' W 076°05'1615.9
2015-Aug-31 03:33N 37°37' W 076°05'1717.1
2015-Aug-31 02:33N 37°54' W 076°10'1918.8
2015-Aug-31 01:32N 38°12' W 076°15'2019.4
2015-Aug-31 00:32N 38°30' W 076°24'1818.4
2015-Aug-30 23:33N 38°48' W 076°25'1615.9
2015-Aug-30 22:33N 39°04' W 076°24'1211.9
2015-Aug-30 21:33N 39°14' W 076°32'3 3.5
2015-Aug-30 20:33N 39°16' W 076°36'0 0.0
2015-Aug-30 19:33N 39°16' W 076°36'0 0.0
2015-Aug-30 18:33N 39°16' W 076°36'0 0.0
2015-Aug-30 17:33N 39°16' W 076°36'0 0.0
2015-Aug-30 16:33N 39°16' W 076°36'0 0.0
2015-Aug-30 15:33N 39°16' W 076°36'0 0.0
2015-Aug-30 14:33N 39°16' W 076°36'0 0.0
2015-Aug-30 13:32N 39°16' W 076°36'0 0.1
2015-Aug-30 12:33N 39°16' W 076°36'9 8.5
2015-Aug-30 11:33N 39°11' W 076°27'1312.9
2015-Aug-30 10:33N 38°58' W 076°23'1716.6
2015-Aug-30 09:33N 38°42' W 076°26'1817.5
2015-Aug-30 08:33N 38°25' W 076°21'2019.9
2015-Aug-30 07:33N 38°06' W 076°13'1919.0
2015-Aug-30 06:33N 37°47' W 076°11'1817.7
2015-Aug-30 05:33N 37°30' W 076°03'1919.2
2015-Aug-30 04:33N 37°11' W 076°09'2416.7
2015-Aug-30 03:06N 36°52' W 075°51'5419.9
2015-Aug-30 00:22N 36°05' W 075°17'1620.1
2015-Aug-29 23:33N 35°49' W 075°12'9718.7
2015-Aug-29 18:23N 34°22' W 076°02'46121.1
2015-Aug-28 20:33N 27°15' W 079°23'2822.5
2015-Aug-28 19:18N 26°49' W 079°10'5 0.1
2015-Aug-27 05:31N 26°52' W 079°15'118 6.2
2015-Aug-26 10:33N 28°25' W 080°37'  
2015-Aug-24 03:30N 37°34' W 076°03'2317.5
2015-Aug-24 02:11N 37°57' W 076°10'1218.6
2015-Aug-24 01:32N 38°08' W 076°14'3718.5
2015-Aug-23 23:33N 38°44' W 076°26'1818.0
2015-Aug-23 22:34N 39°02' W 076°23'1312.8
2015-Aug-23 21:33N 39°13' W 076°31'5 4.8
2015-Aug-23 20:33N 39°16' W 076°36'0 0.0
2015-Aug-23 19:33N 39°16' W 076°36'0 0.0
2015-Aug-23 18:33N 39°16' W 076°36'0 0.0
2015-Aug-23 17:33N 39°16' W 076°36'0 0.0
2015-Aug-23 16:30N 39°16' W 076°36'0 0.0
2015-Aug-23 15:33N 39°16' W 076°36'0 0.0
2015-Aug-23 14:30N 39°16' W 076°36'0 0.0
2015-Aug-23 13:33N 39°16' W 076°36'0 0.1
2015-Aug-23 12:33N 39°16' W 076°36'9 8.9
2015-Aug-23 11:33N 39°11' W 076°26'1414.5
2015-Aug-23 10:34N 38°56' W 076°23'1918.6
2015-Aug-23 09:33N 38°38' W 076°25'4219.0
2015-Aug-23 07:22N 37°58' W 076°11'  
Track history (hours):
 
Tides and Currents Weather Stations Pressure Air Temp Water Temp Dewpoint Dewpoint Depression Visibility Wind Speed Wind Dir Waves Ship Positions

Carnival Pride

Operator: Carnival Cruise Lines

Last reported at 2015-Sep-01 11:00 UTC. Time now 2015-Sep-03 17:14 UTC.
Position N 28°30' W 074°06'.

Type: Ship. MMSI: 354215000.

Wind from 170 at 19 knots

Barometer 1020.0 mb
Air temperature 27.0 ° C
Visibility: greater than 10.8 NM
Dewpoint 24.0 ° C
Water temperature 29.0 ° C

Date/timePositionNaut miles runAvg speedWind from/ knotsBaromVisibWave heightAir tempDewpointWater temp
2015-Sep-01 11:00N 28°30' W 074°06'48018.0 170 / 191020.010.8 27.024.029.0
2015-Aug-31 08:19N 36°25' W 075°30'1418.8
2015-Aug-31 07:33N 36°38' W 075°38'1818.4
2015-Aug-31 06:33N 36°52' W 075°53'1716.6
2015-Aug-31 05:33N 37°05' W 076°06'1616.1
2015-Aug-31 04:33N 37°21' W 076°05'1615.9
2015-Aug-31 03:33N 37°37' W 076°05'1717.1
2015-Aug-31 02:33N 37°54' W 076°10'1918.8
2015-Aug-31 01:32N 38°12' W 076°15'2019.4
2015-Aug-31 00:32N 38°30' W 076°24'1818.4
2015-Aug-30 23:33N 38°48' W 076°25'1615.9
2015-Aug-30 22:33N 39°04' W 076°24'1211.9
2015-Aug-30 21:33N 39°14' W 076°32'3 3.5
2015-Aug-30 20:33N 39°16' W 076°36'0 0.0
2015-Aug-30 19:33N 39°16' W 076°36'0 0.0
2015-Aug-30 18:33N 39°16' W 076°36'0 0.0
2015-Aug-30 17:33N 39°16' W 076°36'0 0.0
2015-Aug-30 16:33N 39°16' W 076°36'0 0.0
2015-Aug-30 15:33N 39°16' W 076°36'0 0.0
2015-Aug-30 14:33N 39°16' W 076°36'0 0.0
2015-Aug-30 13:32N 39°16' W 076°36'0 0.1
2015-Aug-30 12:33N 39°16' W 076°36'9 8.5
2015-Aug-30 11:33N 39°11' W 076°27'1312.9
2015-Aug-30 10:33N 38°58' W 076°23'1716.6
2015-Aug-30 09:33N 38°42' W 076°26'1817.5
2015-Aug-30 08:33N 38°25' W 076°21'2019.9
2015-Aug-30 07:33N 38°06' W 076°13'1919.0
2015-Aug-30 06:33N 37°47' W 076°11'1817.7
2015-Aug-30 05:33N 37°30' W 076°03'1919.2
2015-Aug-30 04:33N 37°11' W 076°09'2416.7
2015-Aug-30 03:06N 36°52' W 075°51'5419.9
2015-Aug-30 00:22N 36°05' W 075°17'1620.1
2015-Aug-29 23:33N 35°49' W 075°12'9718.7
2015-Aug-29 18:23N 34°22' W 076°02'46121.1
2015-Aug-28 20:33N 27°15' W 079°23'2822.5
2015-Aug-28 19:18N 26°49' W 079°10'5 0.1
2015-Aug-27 05:31N 26°52' W 079°15'118 6.2
2015-Aug-26 10:33N 28°25' W 080°37'  
2015-Aug-24 03:30N 37°34' W 076°03'2317.5
2015-Aug-24 02:11N 37°57' W 076°10'1218.6
2015-Aug-24 01:32N 38°08' W 076°14'3718.5
2015-Aug-23 23:33N 38°44' W 076°26'1818.0
2015-Aug-23 22:34N 39°02' W 076°23'1312.8
2015-Aug-23 21:33N 39°13' W 076°31'5 4.8
2015-Aug-23 20:33N 39°16' W 076°36'0 0.0
2015-Aug-23 19:33N 39°16' W 076°36'0 0.0
2015-Aug-23 18:33N 39°16' W 076°36'0 0.0
2015-Aug-23 17:33N 39°16' W 076°36'0 0.0
2015-Aug-23 16:30N 39°16' W 076°36'0 0.0
2015-Aug-23 15:33N 39°16' W 076°36'0 0.0
2015-Aug-23 14:30N 39°16' W 076°36'0 0.0
2015-Aug-23 13:33N 39°16' W 076°36'0 0.1
2015-Aug-23 12:33N 39°16' W 076°36'9 8.9
2015-Aug-23 11:33N 39°11' W 076°26'1414.5
2015-Aug-23 10:34N 38°56' W 076°23'1918.6
2015-Aug-23 09:33N 38°38' W 076°25'4219.0
2015-Aug-23 07:22N 37°58' W 076°11'  

Dump ship's entire track history